sensor_id;sensor_type;location;lat;lon;timestamp;P1;durP1;ratioP1;P2;durP2;ratioP2
19253;SDS011;9761;50.926;5.330;2022-10-31T00:02:04;29.53;;;19.87;;
19253;SDS011;9761;50.926;5.330;2022-10-31T00:04:32;29.73;;;20.50;;
19253;SDS011;9761;50.926;5.330;2022-10-31T00:06:59;28.30;;;20.30;;
19253;SDS011;9761;50.926;5.330;2022-10-31T00:09:27;27.83;;;20.57;;
19253;SDS011;9761;50.926;5.330;2022-10-31T00:11:54;24.83;;;19.63;;
19253;SDS011;9761;50.926;5.330;2022-10-31T00:14:21;28.80;;;20.43;;
19253;SDS011;9761;50.926;5.330;2022-10-31T00:16:50;30.80;;;20.73;;
19253;SDS011;9761;50.926;5.330;2022-10-31T00:19:17;30.43;;;21.67;;
19253;SDS011;9761;50.926;5.330;2022-10-31T00:21:44;27.87;;;21.40;;
19253;SDS011;9761;50.926;5.330;2022-10-31T00:24:10;27.70;;;20.93;;
19253;SDS011;9761;50.926;5.330;2022-10-31T00:26:38;29.77;;;21.63;;
19253;SDS011;9761;50.926;5.330;2022-10-31T00:29:07;28.93;;;21.03;;
19253;SDS011;9761;50.926;5.330;2022-10-31T00:31:34;29.90;;;20.93;;
19253;SDS011;9761;50.926;5.330;2022-10-31T00:34:02;27.03;;;20.57;;
19253;SDS011;9761;50.926;5.330;2022-10-31T00:36:29;28.13;;;21.03;;
19253;SDS011;9761;50.926;5.330;2022-10-31T00:38:57;34.43;;;22.03;;
19253;SDS011;9761;50.926;5.330;2022-10-31T00:41:25;27.50;;;20.13;;
19253;SDS011;9761;50.926;5.330;2022-10-31T00:43:54;27.20;;;20.40;;
19253;SDS011;9761;50.926;5.330;2022-10-31T00:46:20;30.37;;;19.90;;
19253;SDS011;9761;50.926;5.330;2022-10-31T00:48:47;30.70;;;19.70;;
19253;SDS011;9761;50.926;5.330;2022-10-31T00:51:16;26.87;;;19.43;;
19253;SDS011;9761;50.926;5.330;2022-10-31T00:53:43;30.73;;;21.00;;
19253;SDS011;9761;50.926;5.330;2022-10-31T00:56:10;30.63;;;20.53;;
19253;SDS011;9761;50.926;5.330;2022-10-31T00:58:37;25.23;;;18.90;;
19253;SDS011;9761;50.926;5.330;2022-10-31T01:01:04;33.63;;;22.70;;
19253;SDS011;9761;50.926;5.330;2022-10-31T01:03:32;29.57;;;20.73;;
19253;SDS011;9761;50.926;5.330;2022-10-31T01:06:00;29.57;;;21.03;;
19253;SDS011;9761;50.926;5.330;2022-10-31T01:08:30;30.13;;;21.87;;
19253;SDS011;9761;50.926;5.330;2022-10-31T01:11:02;34.90;;;22.40;;
19253;SDS011;9761;50.926;5.330;2022-10-31T01:13:31;31.93;;;20.97;;
19253;SDS011;9761;50.926;5.330;2022-10-31T01:15:58;29.77;;;21.67;;
19253;SDS011;9761;50.926;5.330;2022-10-31T01:18:28;37.13;;;22.50;;
19253;SDS011;9761;50.926;5.330;2022-10-31T01:20:57;29.77;;;19.93;;
19253;SDS011;9761;50.926;5.330;2022-10-31T01:23:26;25.30;;;19.90;;
19253;SDS011;9761;50.926;5.330;2022-10-31T01:26:05;32.00;;;22.43;;
19253;SDS011;9761;50.926;5.330;2022-10-31T01:28:35;33.63;;;21.83;;
19253;SDS011;9761;50.926;5.330;2022-10-31T01:31:05;29.67;;;20.53;;
19253;SDS011;9761;50.926;5.330;2022-10-31T01:33:35;32.77;;;21.50;;
19253;SDS011;9761;50.926;5.330;2022-10-31T01:36:10;32.37;;;21.53;;
19253;SDS011;9761;50.926;5.330;2022-10-31T01:38:39;32.80;;;21.57;;
19253;SDS011;9761;50.926;5.330;2022-10-31T01:41:08;30.50;;;21.40;;
19253;SDS011;9761;50.926;5.330;2022-10-31T01:43:42;37.53;;;21.73;;
19253;SDS011;9761;50.926;5.330;2022-10-31T01:46:14;32.80;;;20.47;;
19253;SDS011;9761;50.926;5.330;2022-10-31T01:48:45;31.53;;;21.90;;
19253;SDS011;9761;50.926;5.330;2022-10-31T01:51:14;28.13;;;20.83;;
19253;SDS011;9761;50.926;5.330;2022-10-31T01:53:43;31.23;;;21.70;;
19253;SDS011;9761;50.926;5.330;2022-10-31T01:56:17;38.30;;;20.63;;
19253;SDS011;9761;50.926;5.330;2022-10-31T01:58:45;26.60;;;20.43;;
19253;SDS011;9761;50.926;5.330;2022-10-31T02:01:14;32.03;;;22.47;;
19253;SDS011;9761;50.926;5.330;2022-10-31T02:03:44;30.33;;;20.40;;
19253;SDS011;9761;50.926;5.330;2022-10-31T02:06:14;30.33;;;21.33;;
19253;SDS011;9761;50.926;5.330;2022-10-31T02:08:48;33.10;;;20.47;;
19253;SDS011;9761;50.926;5.330;2022-10-31T02:11:19;28.03;;;20.50;;
19253;SDS011;9761;50.926;5.330;2022-10-31T02:13:47;31.43;;;22.13;;
19253;SDS011;9761;50.926;5.330;2022-10-31T02:16:14;29.40;;;21.87;;
19253;SDS011;9761;50.926;5.330;2022-10-31T02:18:41;29.77;;;21.03;;
19253;SDS011;9761;50.926;5.330;2022-10-31T02:21:11;32.90;;;21.40;;
19253;SDS011;9761;50.926;5.330;2022-10-31T02:23:56;32.20;;;20.53;;
19253;SDS011;9761;50.926;5.330;2022-10-31T02:26:48;27.30;;;20.17;;
19253;SDS011;9761;50.926;5.330;2022-10-31T02:29:32;30.57;;;20.27;;
19253;SDS011;9761;50.926;5.330;2022-10-31T02:32:28;28.90;;;21.60;;
19253;SDS011;9761;50.926;5.330;2022-10-31T02:35:08;33.47;;;21.17;;
19253;SDS011;9761;50.926;5.330;2022-10-31T02:37:42;32.70;;;22.10;;
19253;SDS011;9761;50.926;5.330;2022-10-31T02:40:17;36.47;;;22.60;;
19253;SDS011;9761;50.926;5.330;2022-10-31T02:42:56;33.07;;;22.17;;
19253;SDS011;9761;50.926;5.330;2022-10-31T02:45:29;30.20;;;22.03;;
19253;SDS011;9761;50.926;5.330;2022-10-31T02:48:03;35.87;;;21.77;;
19253;SDS011;9761;50.926;5.330;2022-10-31T02:50:37;33.43;;;20.50;;
19253;SDS011;9761;50.926;5.330;2022-10-31T02:53:10;28.00;;;20.37;;
19253;SDS011;9761;50.926;5.330;2022-10-31T02:55:49;29.97;;;21.07;;
19253;SDS011;9761;50.926;5.330;2022-10-31T02:58:28;31.67;;;22.10;;
19253;SDS011;9761;50.926;5.330;2022-10-31T03:01:14;30.40;;;21.27;;
19253;SDS011;9761;50.926;5.330;2022-10-31T03:06:49;30.73;;;20.77;;
19253;SDS011;9761;50.926;5.330;2022-10-31T03:09:23;31.07;;;20.17;;
19253;SDS011;9761;50.926;5.330;2022-10-31T03:11:56;29.17;;;19.77;;
19253;SDS011;9761;50.926;5.330;2022-10-31T03:14:31;32.40;;;20.83;;
19253;SDS011;9761;50.926;5.330;2022-10-31T03:17:07;31.03;;;21.07;;
19253;SDS011;9761;50.926;5.330;2022-10-31T03:19:45;29.90;;;20.47;;
19253;SDS011;9761;50.926;5.330;2022-10-31T03:22:16;28.80;;;21.53;;
19253;SDS011;9761;50.926;5.330;2022-10-31T03:24:47;33.33;;;20.87;;
19253;SDS011;9761;50.926;5.330;2022-10-31T03:27:18;30.60;;;21.17;;
19253;SDS011;9761;50.926;5.330;2022-10-31T03:29:51;35.87;;;21.80;;
19253;SDS011;9761;50.926;5.330;2022-10-31T03:32:22;29.07;;;21.37;;
19253;SDS011;9761;50.926;5.330;2022-10-31T03:34:55;34.60;;;20.63;;
19253;SDS011;9761;50.926;5.330;2022-10-31T03:37:28;29.13;;;20.83;;
19253;SDS011;9761;50.926;5.330;2022-10-31T03:39:58;29.07;;;20.73;;
19253;SDS011;9761;50.926;5.330;2022-10-31T03:42:28;34.03;;;20.70;;
19253;SDS011;9761;50.926;5.330;2022-10-31T03:45:00;29.40;;;20.87;;
19253;SDS011;9761;50.926;5.330;2022-10-31T03:47:30;33.50;;;21.37;;
19253;SDS011;9761;50.926;5.330;2022-10-31T03:50:00;28.93;;;20.73;;
19253;SDS011;9761;50.926;5.330;2022-10-31T03:52:33;32.83;;;21.93;;
19253;SDS011;9761;50.926;5.330;2022-10-31T03:55:09;33.80;;;21.67;;
19253;SDS011;9761;50.926;5.330;2022-10-31T03:57:39;30.47;;;21.37;;
19253;SDS011;9761;50.926;5.330;2022-10-31T04:00:12;29.53;;;21.30;;
19253;SDS011;9761;50.926;5.330;2022-10-31T04:02:43;34.10;;;23.00;;
19253;SDS011;9761;50.926;5.330;2022-10-31T04:05:16;33.67;;;21.33;;
19253;SDS011;9761;50.926;5.330;2022-10-31T04:07:46;33.77;;;21.30;;
19253;SDS011;9761;50.926;5.330;2022-10-31T04:10:19;27.50;;;20.20;;
19253;SDS011;9761;50.926;5.330;2022-10-31T04:12:51;33.33;;;20.67;;
19253;SDS011;9761;50.926;5.330;2022-10-31T04:15:22;32.37;;;22.77;;
19253;SDS011;9761;50.926;5.330;2022-10-31T04:17:52;31.90;;;21.93;;
19253;SDS011;9761;50.926;5.330;2022-10-31T04:20:30;33.50;;;21.33;;
19253;SDS011;9761;50.926;5.330;2022-10-31T04:22:59;36.67;;;22.70;;
19253;SDS011;9761;50.926;5.330;2022-10-31T04:25:26;34.33;;;23.10;;
19253;SDS011;9761;50.926;5.330;2022-10-31T04:27:53;35.33;;;22.63;;
19253;SDS011;9761;50.926;5.330;2022-10-31T04:30:20;28.70;;;21.97;;
19253;SDS011;9761;50.926;5.330;2022-10-31T04:32:47;29.57;;;21.60;;
19253;SDS011;9761;50.926;5.330;2022-10-31T04:35:14;31.47;;;21.70;;
19253;SDS011;9761;50.926;5.330;2022-10-31T04:37:45;34.60;;;21.27;;
19253;SDS011;9761;50.926;5.330;2022-10-31T04:40:12;33.07;;;22.80;;
19253;SDS011;9761;50.926;5.330;2022-10-31T04:42:39;39.20;;;23.67;;
19253;SDS011;9761;50.926;5.330;2022-10-31T04:45:06;34.53;;;23.73;;
19253;SDS011;9761;50.926;5.330;2022-10-31T04:47:37;38.47;;;21.33;;
19253;SDS011;9761;50.926;5.330;2022-10-31T04:50:04;32.37;;;22.90;;
19253;SDS011;9761;50.926;5.330;2022-10-31T04:52:31;32.13;;;21.77;;
19253;SDS011;9761;50.926;5.330;2022-10-31T04:54:59;32.70;;;22.97;;
19253;SDS011;9761;50.926;5.330;2022-10-31T04:57:27;32.83;;;21.90;;
19253;SDS011;9761;50.926;5.330;2022-10-31T04:59:54;34.77;;;22.67;;
19253;SDS011;9761;50.926;5.330;2022-10-31T05:02:21;30.20;;;22.60;;
19253;SDS011;9761;50.926;5.330;2022-10-31T05:04:48;34.80;;;23.53;;
19253;SDS011;9761;50.926;5.330;2022-10-31T05:07:15;32.03;;;22.03;;
19253;SDS011;9761;50.926;5.330;2022-10-31T05:09:43;33.87;;;22.60;;
19253;SDS011;9761;50.926;5.330;2022-10-31T05:12:11;31.63;;;22.13;;
19253;SDS011;9761;50.926;5.330;2022-10-31T05:14:38;35.50;;;25.87;;
19253;SDS011;9761;50.926;5.330;2022-10-31T05:17:06;31.23;;;22.23;;
19253;SDS011;9761;50.926;5.330;2022-10-31T05:19:33;34.87;;;22.43;;
19253;SDS011;9761;50.926;5.330;2022-10-31T05:21:59;30.37;;;22.60;;
19253;SDS011;9761;50.926;5.330;2022-10-31T05:24:27;35.13;;;22.83;;
19253;SDS011;9761;50.926;5.330;2022-10-31T05:26:54;30.10;;;21.40;;
19253;SDS011;9761;50.926;5.330;2022-10-31T05:29:23;32.33;;;21.77;;
19253;SDS011;9761;50.926;5.330;2022-10-31T05:31:50;31.53;;;23.60;;
19253;SDS011;9761;50.926;5.330;2022-10-31T05:34:16;30.40;;;21.50;;
19253;SDS011;9761;50.926;5.330;2022-10-31T05:36:44;36.47;;;22.90;;
19253;SDS011;9761;50.926;5.330;2022-10-31T05:39:11;36.93;;;21.47;;
19253;SDS011;9761;50.926;5.330;2022-10-31T05:41:38;33.03;;;22.40;;
19253;SDS011;9761;50.926;5.330;2022-10-31T05:44:04;32.57;;;23.40;;
19253;SDS011;9761;50.926;5.330;2022-10-31T05:46:33;37.40;;;22.73;;
19253;SDS011;9761;50.926;5.330;2022-10-31T05:49:00;36.63;;;21.93;;
19253;SDS011;9761;50.926;5.330;2022-10-31T05:51:27;33.80;;;22.90;;
19253;SDS011;9761;50.926;5.330;2022-10-31T05:53:55;32.37;;;23.47;;
19253;SDS011;9761;50.926;5.330;2022-10-31T05:56:23;30.73;;;22.07;;
19253;SDS011;9761;50.926;5.330;2022-10-31T05:58:50;27.30;;;21.07;;
19253;SDS011;9761;50.926;5.330;2022-10-31T06:01:17;31.07;;;21.20;;
19253;SDS011;9761;50.926;5.330;2022-10-31T06:03:45;28.70;;;20.73;;
19253;SDS011;9761;50.926;5.330;2022-10-31T06:06:13;30.40;;;21.77;;
19253;SDS011;9761;50.926;5.330;2022-10-31T06:08:40;28.37;;;20.00;;
19253;SDS011;9761;50.926;5.330;2022-10-31T06:11:10;29.47;;;21.37;;
19253;SDS011;9761;50.926;5.330;2022-10-31T06:13:38;27.60;;;19.93;;
19253;SDS011;9761;50.926;5.330;2022-10-31T06:16:05;27.93;;;21.87;;
19253;SDS011;9761;50.926;5.330;2022-10-31T06:18:32;29.20;;;19.77;;
19253;SDS011;9761;50.926;5.330;2022-10-31T06:21:05;29.10;;;20.07;;
19253;SDS011;9761;50.926;5.330;2022-10-31T06:23:35;29.57;;;19.73;;
19253;SDS011;9761;50.926;5.330;2022-10-31T06:26:02;25.97;;;20.17;;
19253;SDS011;9761;50.926;5.330;2022-10-31T06:28:32;27.43;;;18.97;;
19253;SDS011;9761;50.926;5.330;2022-10-31T06:30:59;24.77;;;19.30;;
19253;SDS011;9761;50.926;5.330;2022-10-31T06:33:28;26.43;;;18.70;;
19253;SDS011;9761;50.926;5.330;2022-10-31T06:35:56;27.10;;;18.90;;
19253;SDS011;9761;50.926;5.330;2022-10-31T06:38:26;25.07;;;18.37;;
19253;SDS011;9761;50.926;5.330;2022-10-31T06:40:53;30.97;;;19.77;;
19253;SDS011;9761;50.926;5.330;2022-10-31T06:43:20;28.60;;;19.23;;
19253;SDS011;9761;50.926;5.330;2022-10-31T06:45:48;27.47;;;18.57;;
19253;SDS011;9761;50.926;5.330;2022-10-31T06:48:15;27.97;;;18.93;;
19253;SDS011;9761;50.926;5.330;2022-10-31T06:50:43;24.20;;;18.43;;
19253;SDS011;9761;50.926;5.330;2022-10-31T06:53:12;29.13;;;18.97;;
19253;SDS011;9761;50.926;5.330;2022-10-31T06:55:40;28.33;;;19.23;;
19253;SDS011;9761;50.926;5.330;2022-10-31T06:58:08;31.30;;;19.00;;
19253;SDS011;9761;50.926;5.330;2022-10-31T07:00:36;27.60;;;18.70;;
19253;SDS011;9761;50.926;5.330;2022-10-31T07:03:05;24.90;;;18.03;;
19253;SDS011;9761;50.926;5.330;2022-10-31T07:05:35;28.30;;;18.97;;
19253;SDS011;9761;50.926;5.330;2022-10-31T07:08:03;28.10;;;18.80;;
19253;SDS011;9761;50.926;5.330;2022-10-31T07:10:32;28.87;;;19.07;;
19253;SDS011;9761;50.926;5.330;2022-10-31T07:13:03;27.70;;;17.57;;
19253;SDS011;9761;50.926;5.330;2022-10-31T07:15:35;25.57;;;16.93;;
19253;SDS011;9761;50.926;5.330;2022-10-31T07:18:02;25.60;;;16.37;;
19253;SDS011;9761;50.926;5.330;2022-10-31T07:20:31;29.07;;;22.57;;
19253;SDS011;9761;50.926;5.330;2022-10-31T07:23:00;28.33;;;21.63;;
19253;SDS011;9761;50.926;5.330;2022-10-31T07:25:27;29.67;;;18.03;;
19253;SDS011;9761;50.926;5.330;2022-10-31T07:27:55;25.07;;;17.60;;
19253;SDS011;9761;50.926;5.330;2022-10-31T07:30:23;20.73;;;16.37;;
19253;SDS011;9761;50.926;5.330;2022-10-31T07:32:50;25.13;;;16.47;;
19253;SDS011;9761;50.926;5.330;2022-10-31T07:35:18;25.30;;;19.43;;
19253;SDS011;9761;50.926;5.330;2022-10-31T07:37:46;31.67;;;19.17;;
19253;SDS011;9761;50.926;5.330;2022-10-31T07:40:14;33.13;;;25.83;;
19253;SDS011;9761;50.926;5.330;2022-10-31T07:42:41;27.33;;;18.40;;
19253;SDS011;9761;50.926;5.330;2022-10-31T07:45:10;27.90;;;15.80;;
19253;SDS011;9761;50.926;5.330;2022-10-31T07:47:39;21.80;;;15.37;;
19253;SDS011;9761;50.926;5.330;2022-10-31T07:50:07;33.00;;;18.27;;
19253;SDS011;9761;50.926;5.330;2022-10-31T07:52:36;32.53;;;19.53;;
19253;SDS011;9761;50.926;5.330;2022-10-31T07:55:04;25.63;;;18.17;;
19253;SDS011;9761;50.926;5.330;2022-10-31T07:57:32;25.87;;;19.83;;
19253;SDS011;9761;50.926;5.330;2022-10-31T08:00:01;27.20;;;18.40;;
19253;SDS011;9761;50.926;5.330;2022-10-31T08:02:28;25.33;;;17.03;;
19253;SDS011;9761;50.926;5.330;2022-10-31T08:04:57;21.57;;;15.07;;
19253;SDS011;9761;50.926;5.330;2022-10-31T08:07:24;25.23;;;15.30;;
19253;SDS011;9761;50.926;5.330;2022-10-31T08:09:51;20.43;;;14.90;;
19253;SDS011;9761;50.926;5.330;2022-10-31T08:12:18;28.77;;;16.27;;
19253;SDS011;9761;50.926;5.330;2022-10-31T08:14:45;24.17;;;14.37;;
19253;SDS011;9761;50.926;5.330;2022-10-31T08:17:12;22.67;;;16.27;;
19253;SDS011;9761;50.926;5.330;2022-10-31T08:19:39;28.50;;;19.27;;
19253;SDS011;9761;50.926;5.330;2022-10-31T08:22:08;22.77;;;16.10;;
19253;SDS011;9761;50.926;5.330;2022-10-31T08:24:35;26.27;;;14.77;;
19253;SDS011;9761;50.926;5.330;2022-10-31T08:27:01;21.50;;;14.47;;
19253;SDS011;9761;50.926;5.330;2022-10-31T08:29:28;19.83;;;14.20;;
19253;SDS011;9761;50.926;5.330;2022-10-31T08:31:57;23.33;;;15.20;;
19253;SDS011;9761;50.926;5.330;2022-10-31T08:34:24;21.33;;;14.50;;
19253;SDS011;9761;50.926;5.330;2022-10-31T08:36:51;23.83;;;14.93;;
19253;SDS011;9761;50.926;5.330;2022-10-31T08:39:20;22.93;;;15.20;;
19253;SDS011;9761;50.926;5.330;2022-10-31T08:41:48;24.07;;;15.27;;
19253;SDS011;9761;50.926;5.330;2022-10-31T08:44:15;21.13;;;15.60;;
19253;SDS011;9761;50.926;5.330;2022-10-31T08:46:44;28.27;;;17.30;;
19253;SDS011;9761;50.926;5.330;2022-10-31T08:49:12;25.00;;;16.53;;
19253;SDS011;9761;50.926;5.330;2022-10-31T08:51:39;24.33;;;17.03;;
19253;SDS011;9761;50.926;5.330;2022-10-31T08:54:05;24.13;;;15.57;;
19253;SDS011;9761;50.926;5.330;2022-10-31T08:56:36;23.03;;;15.57;;
19253;SDS011;9761;50.926;5.330;2022-10-31T08:59:03;26.07;;;16.27;;
19253;SDS011;9761;50.926;5.330;2022-10-31T09:01:31;25.33;;;18.23;;
19253;SDS011;9761;50.926;5.330;2022-10-31T09:03:59;28.03;;;17.27;;
19253;SDS011;9761;50.926;5.330;2022-10-31T09:14:27;25.93;;;16.93;;
19253;SDS011;9761;50.926;5.330;2022-10-31T09:20:00;46.23;;;22.33;;
19253;SDS011;9761;50.926;5.330;2022-10-31T09:22:30;35.47;;;19.60;;
19253;SDS011;9761;50.926;5.330;2022-10-31T09:24:57;30.97;;;17.67;;
19253;SDS011;9761;50.926;5.330;2022-10-31T09:27:24;31.40;;;17.57;;
19253;SDS011;9761;50.926;5.330;2022-10-31T09:29:52;28.73;;;18.33;;
19253;SDS011;9761;50.926;5.330;2022-10-31T09:32:20;28.00;;;17.60;;
19253;SDS011;9761;50.926;5.330;2022-10-31T09:34:50;41.40;;;19.70;;
19253;SDS011;9761;50.926;5.330;2022-10-31T09:37:17;23.23;;;17.20;;
19253;SDS011;9761;50.926;5.330;2022-10-31T09:39:45;42.33;;;22.30;;
19253;SDS011;9761;50.926;5.330;2022-10-31T09:45:16;61.10;;;22.03;;
19253;SDS011;9761;50.926;5.330;2022-10-31T09:47:56;28.53;;;17.87;;
19253;SDS011;9761;50.926;5.330;2022-10-31T09:50:38;29.73;;;18.20;;
19253;SDS011;9761;50.926;5.330;2022-10-31T09:53:12;27.50;;;17.13;;
19253;SDS011;9761;50.926;5.330;2022-10-31T09:55:46;31.70;;;18.17;;
19253;SDS011;9761;50.926;5.330;2022-10-31T09:58:15;32.13;;;18.40;;
19253;SDS011;9761;50.926;5.330;2022-10-31T10:00:49;29.30;;;18.23;;
19253;SDS011;9761;50.926;5.330;2022-10-31T10:03:21;27.17;;;17.30;;
19253;SDS011;9761;50.926;5.330;2022-10-31T10:05:57;26.43;;;15.93;;
19253;SDS011;9761;50.926;5.330;2022-10-31T10:08:32;31.07;;;18.37;;
19253;SDS011;9761;50.926;5.330;2022-10-31T10:11:08;25.80;;;16.10;;
19253;SDS011;9761;50.926;5.330;2022-10-31T10:13:53;25.50;;;15.80;;
19253;SDS011;9761;50.926;5.330;2022-10-31T10:16:35;26.77;;;16.93;;
19253;SDS011;9761;50.926;5.330;2022-10-31T10:19:23;22.40;;;15.20;;
19253;SDS011;9761;50.926;5.330;2022-10-31T10:22:04;19.33;;;14.27;;
19253;SDS011;9761;50.926;5.330;2022-10-31T10:24:56;21.33;;;15.60;;
19253;SDS011;9761;50.926;5.330;2022-10-31T10:27:39;24.13;;;17.07;;
19253;SDS011;9761;50.926;5.330;2022-10-31T10:30:14;27.00;;;15.60;;
19253;SDS011;9761;50.926;5.330;2022-10-31T10:32:47;21.23;;;14.83;;
19253;SDS011;9761;50.926;5.330;2022-10-31T10:35:19;22.97;;;15.13;;
19253;SDS011;9761;50.926;5.330;2022-10-31T10:37:49;22.60;;;15.37;;
19253;SDS011;9761;50.926;5.330;2022-10-31T10:40:21;24.50;;;15.40;;
19253;SDS011;9761;50.926;5.330;2022-10-31T10:42:53;20.20;;;14.73;;
19253;SDS011;9761;50.926;5.330;2022-10-31T10:45:43;43.97;;;24.23;;
19253;SDS011;9761;50.926;5.330;2022-10-31T10:48:38;37.70;;;17.83;;
19253;SDS011;9761;50.926;5.330;2022-10-31T10:51:10;32.57;;;17.47;;
19253;SDS011;9761;50.926;5.330;2022-10-31T10:53:48;27.17;;;15.27;;
19253;SDS011;9761;50.926;5.330;2022-10-31T10:56:31;29.60;;;14.90;;
19253;SDS011;9761;50.926;5.330;2022-10-31T10:59:06;20.60;;;13.53;;
19253;SDS011;9761;50.926;5.330;2022-10-31T11:01:37;20.50;;;13.83;;
19253;SDS011;9761;50.926;5.330;2022-10-31T11:04:14;22.23;;;14.00;;
19253;SDS011;9761;50.926;5.330;2022-10-31T11:06:56;24.43;;;14.43;;
19253;SDS011;9761;50.926;5.330;2022-10-31T11:09:27;24.80;;;14.70;;
19253;SDS011;9761;50.926;5.330;2022-10-31T11:11:55;19.27;;;14.00;;
19253;SDS011;9761;50.926;5.330;2022-10-31T11:14:24;23.53;;;13.70;;
19253;SDS011;9761;50.926;5.330;2022-10-31T11:16:54;19.90;;;13.07;;
19253;SDS011;9761;50.926;5.330;2022-10-31T11:19:35;18.67;;;12.97;;
19253;SDS011;9761;50.926;5.330;2022-10-31T11:22:06;19.53;;;13.43;;
19253;SDS011;9761;50.926;5.330;2022-10-31T11:24:37;19.80;;;12.53;;
19253;SDS011;9761;50.926;5.330;2022-10-31T11:27:13;17.17;;;12.73;;
19253;SDS011;9761;50.926;5.330;2022-10-31T11:29:41;19.97;;;13.27;;
19253;SDS011;9761;50.926;5.330;2022-10-31T11:32:18;20.53;;;12.17;;
19253;SDS011;9761;50.926;5.330;2022-10-31T11:34:49;19.70;;;11.07;;
19253;SDS011;9761;50.926;5.330;2022-10-31T11:37:21;16.10;;;10.63;;
19253;SDS011;9761;50.926;5.330;2022-10-31T11:39:52;21.70;;;11.13;;
19253;SDS011;9761;50.926;5.330;2022-10-31T11:42:21;18.23;;;11.87;;
19253;SDS011;9761;50.926;5.330;2022-10-31T11:44:51;18.47;;;11.40;;
19253;SDS011;9761;50.926;5.330;2022-10-31T11:47:23;15.67;;;10.27;;
19253;SDS011;9761;50.926;5.330;2022-10-31T11:49:54;17.80;;;10.93;;
19253;SDS011;9761;50.926;5.330;2022-10-31T11:52:23;17.73;;;11.53;;
19253;SDS011;9761;50.926;5.330;2022-10-31T11:54:53;11.83;;;10.10;;
19253;SDS011;9761;50.926;5.330;2022-10-31T11:57:25;15.17;;;10.10;;
19253;SDS011;9761;50.926;5.330;2022-10-31T11:59:53;17.60;;;10.67;;
19253;SDS011;9761;50.926;5.330;2022-10-31T12:02:23;14.83;;;9.70;;
19253;SDS011;9761;50.926;5.330;2022-10-31T12:04:57;13.13;;;10.33;;
19253;SDS011;9761;50.926;5.330;2022-10-31T12:07:28;14.47;;;9.60;;
19253;SDS011;9761;50.926;5.330;2022-10-31T12:09:55;16.30;;;8.87;;
19253;SDS011;9761;50.926;5.330;2022-10-31T12:12:26;17.77;;;9.77;;
19253;SDS011;9761;50.926;5.330;2022-10-31T12:15:11;15.90;;;10.30;;
19253;SDS011;9761;50.926;5.330;2022-10-31T12:20:56;17.90;;;10.20;;
19253;SDS011;9761;50.926;5.330;2022-10-31T12:23:37;15.50;;;8.93;;
19253;SDS011;9761;50.926;5.330;2022-10-31T12:26:15;14.07;;;10.07;;
19253;SDS011;9761;50.926;5.330;2022-10-31T12:28:58;15.30;;;10.20;;
19253;SDS011;9761;50.926;5.330;2022-10-31T12:31:34;16.03;;;10.17;;
19253;SDS011;9761;50.926;5.330;2022-10-31T12:34:30;15.07;;;10.13;;
19253;SDS011;9761;50.926;5.330;2022-10-31T12:37:11;18.07;;;9.70;;
19253;SDS011;9761;50.926;5.330;2022-10-31T12:39:43;18.03;;;9.50;;
19253;SDS011;9761;50.926;5.330;2022-10-31T12:42:19;18.03;;;10.07;;
19253;SDS011;9761;50.926;5.330;2022-10-31T12:45:01;13.53;;;8.97;;
19253;SDS011;9761;50.926;5.330;2022-10-31T12:47:55;14.10;;;9.60;;
19253;SDS011;9761;50.926;5.330;2022-10-31T12:50:33;16.20;;;9.13;;
19253;SDS011;9761;50.926;5.330;2022-10-31T12:53:18;11.77;;;8.63;;
19253;SDS011;9761;50.926;5.330;2022-10-31T12:55:55;15.30;;;9.53;;
19253;SDS011;9761;50.926;5.330;2022-10-31T12:58:35;14.80;;;9.30;;
19253;SDS011;9761;50.926;5.330;2022-10-31T13:01:07;15.60;;;9.07;;
19253;SDS011;9761;50.926;5.330;2022-10-31T13:03:39;18.13;;;8.67;;
19253;SDS011;9761;50.926;5.330;2022-10-31T13:06:13;15.03;;;8.63;;
19253;SDS011;9761;50.926;5.330;2022-10-31T13:08:47;13.50;;;9.00;;
19253;SDS011;9761;50.926;5.330;2022-10-31T13:11:19;11.87;;;8.70;;
19253;SDS011;9761;50.926;5.330;2022-10-31T13:13:52;12.50;;;8.27;;
19253;SDS011;9761;50.926;5.330;2022-10-31T13:16:28;14.20;;;9.00;;
19253;SDS011;9761;50.926;5.330;2022-10-31T13:18:58;16.93;;;9.57;;
19253;SDS011;9761;50.926;5.330;2022-10-31T13:21:33;14.93;;;9.13;;
19253;SDS011;9761;50.926;5.330;2022-10-31T13:24:11;17.30;;;9.13;;
19253;SDS011;9761;50.926;5.330;2022-10-31T13:26:42;14.63;;;9.00;;
19253;SDS011;9761;50.926;5.330;2022-10-31T13:29:15;17.87;;;9.10;;
19253;SDS011;9761;50.926;5.330;2022-10-31T13:31:46;16.47;;;9.30;;
19253;SDS011;9761;50.926;5.330;2022-10-31T13:34:18;15.97;;;9.97;;
19253;SDS011;9761;50.926;5.330;2022-10-31T13:36:53;16.20;;;9.30;;
19253;SDS011;9761;50.926;5.330;2022-10-31T13:39:32;12.83;;;8.67;;
19253;SDS011;9761;50.926;5.330;2022-10-31T13:42:17;12.60;;;9.07;;
19253;SDS011;9761;50.926;5.330;2022-10-31T13:44:50;11.87;;;9.20;;
19253;SDS011;9761;50.926;5.330;2022-10-31T13:47:20;17.20;;;10.23;;
19253;SDS011;9761;50.926;5.330;2022-10-31T13:49:49;16.90;;;9.73;;
19253;SDS011;9761;50.926;5.330;2022-10-31T13:52:22;12.90;;;9.63;;
19253;SDS011;9761;50.926;5.330;2022-10-31T13:54:52;16.23;;;9.73;;
19253;SDS011;9761;50.926;5.330;2022-10-31T13:57:24;15.50;;;9.27;;
19253;SDS011;9761;50.926;5.330;2022-10-31T13:59:58;16.03;;;9.40;;
19253;SDS011;9761;50.926;5.330;2022-10-31T14:02:33;16.40;;;10.23;;
19253;SDS011;9761;50.926;5.330;2022-10-31T14:05:03;15.03;;;9.63;;
19253;SDS011;9761;50.926;5.330;2022-10-31T14:07:32;20.27;;;10.20;;
19253;SDS011;9761;50.926;5.330;2022-10-31T14:10:03;15.57;;;10.07;;
19253;SDS011;9761;50.926;5.330;2022-10-31T14:12:36;17.13;;;11.27;;
19253;SDS011;9761;50.926;5.330;2022-10-31T14:15:05;14.77;;;9.57;;
19253;SDS011;9761;50.926;5.330;2022-10-31T14:17:45;17.30;;;9.53;;
19253;SDS011;9761;50.926;5.330;2022-10-31T14:29:26;16.73;;;10.37;;
19253;SDS011;9761;50.926;5.330;2022-10-31T14:32:01;16.97;;;11.70;;
19253;SDS011;9761;50.926;5.330;2022-10-31T14:34:37;18.47;;;10.43;;
19253;SDS011;9761;50.926;5.330;2022-10-31T14:40:00;15.87;;;9.77;;
19253;SDS011;9761;50.926;5.330;2022-10-31T14:42:47;15.23;;;9.87;;
19253;SDS011;9761;50.926;5.330;2022-10-31T14:45:40;16.40;;;10.13;;
19253;SDS011;9761;50.926;5.330;2022-10-31T14:48:23;20.53;;;9.97;;
19253;SDS011;9761;50.926;5.330;2022-10-31T14:51:03;19.93;;;10.60;;
19253;SDS011;9761;50.926;5.330;2022-10-31T14:53:39;16.87;;;10.50;;
19253;SDS011;9761;50.926;5.330;2022-10-31T14:56:10;18.87;;;9.80;;
19253;SDS011;9761;50.926;5.330;2022-10-31T14:58:45;17.90;;;10.60;;
19253;SDS011;9761;50.926;5.330;2022-10-31T15:01:18;16.90;;;9.83;;
19253;SDS011;9761;50.926;5.330;2022-10-31T15:03:49;16.47;;;9.03;;
19253;SDS011;9761;50.926;5.330;2022-10-31T15:06:17;18.27;;;9.70;;
19253;SDS011;9761;50.926;5.330;2022-10-31T15:08:48;15.40;;;9.60;;
19253;SDS011;9761;50.926;5.330;2022-10-31T15:11:17;17.47;;;9.87;;
19253;SDS011;9761;50.926;5.330;2022-10-31T15:13:45;16.67;;;9.37;;
19253;SDS011;9761;50.926;5.330;2022-10-31T15:16:16;15.60;;;8.23;;
19253;SDS011;9761;50.926;5.330;2022-10-31T15:18:48;17.03;;;9.23;;
19253;SDS011;9761;50.926;5.330;2022-10-31T15:21:20;14.57;;;9.13;;
19253;SDS011;9761;50.926;5.330;2022-10-31T15:23:51;15.50;;;8.90;;
19253;SDS011;9761;50.926;5.330;2022-10-31T15:26:23;14.83;;;8.63;;
19253;SDS011;9761;50.926;5.330;2022-10-31T15:29:00;18.27;;;8.93;;
19253;SDS011;9761;50.926;5.330;2022-10-31T15:31:30;15.07;;;9.27;;
19253;SDS011;9761;50.926;5.330;2022-10-31T15:33:58;16.87;;;8.40;;